sensor_id;sensor_type;location;lat;lon;timestamp;temperature;humidity
19088;DHT22;9676;50.916;13.352;2024-03-29T00:01:47;10.50;44.90
19088;DHT22;9676;50.916;13.352;2024-03-29T00:04:32;10.50;44.90
19088;DHT22;9676;50.916;13.352;2024-03-29T00:07:18;10.40;44.90
19088;DHT22;9676;50.916;13.352;2024-03-29T00:10:04;10.40;44.90
19088;DHT22;9676;50.916;13.352;2024-03-29T00:12:50;10.40;44.90
19088;DHT22;9676;50.916;13.352;2024-03-29T00:15:36;10.40;44.80
19088;DHT22;9676;50.916;13.352;2024-03-29T00:18:23;10.40;44.80
19088;DHT22;9676;50.916;13.352;2024-03-29T00:21:09;10.40;44.80
19088;DHT22;9676;50.916;13.352;2024-03-29T00:23:55;10.40;44.90
19088;DHT22;9676;50.916;13.352;2024-03-29T00:26:40;10.30;44.90
19088;DHT22;9676;50.916;13.352;2024-03-29T00:29:26;10.30;44.90
19088;DHT22;9676;50.916;13.352;2024-03-29T00:32:12;10.30;44.90
19088;DHT22;9676;50.916;13.352;2024-03-29T00:34:59;10.30;44.90
19088;DHT22;9676;50.916;13.352;2024-03-29T00:37:45;10.30;44.90
19088;DHT22;9676;50.916;13.352;2024-03-29T00:40:31;10.30;44.90
19088;DHT22;9676;50.916;13.352;2024-03-29T00:43:17;10.30;44.80
19088;DHT22;9676;50.916;13.352;2024-03-29T00:46:02;10.20;44.70
19088;DHT22;9676;50.916;13.352;2024-03-29T00:48:48;10.20;44.80
19088;DHT22;9676;50.916;13.352;2024-03-29T00:51:36;10.20;44.90
19088;DHT22;9676;50.916;13.352;2024-03-29T00:54:21;10.20;45.00
19088;DHT22;9676;50.916;13.352;2024-03-29T00:57:07;10.20;45.00
19088;DHT22;9676;50.916;13.352;2024-03-29T00:59:53;10.20;45.00
19088;DHT22;9676;50.916;13.352;2024-03-29T01:02:39;10.20;45.10
19088;DHT22;9676;50.916;13.352;2024-03-29T01:05:24;10.20;45.00
19088;DHT22;9676;50.916;13.352;2024-03-29T01:08:11;10.20;45.00
19088;DHT22;9676;50.916;13.352;2024-03-29T01:10:57;10.20;45.10
19088;DHT22;9676;50.916;13.352;2024-03-29T01:13:43;10.30;45.20
19088;DHT22;9676;50.916;13.352;2024-03-29T01:16:29;10.30;45.20
19088;DHT22;9676;50.916;13.352;2024-03-29T01:19:15;10.20;45.10
19088;DHT22;9676;50.916;13.352;2024-03-29T01:22:01;10.20;45.00
19088;DHT22;9676;50.916;13.352;2024-03-29T01:24:48;10.20;45.00
19088;DHT22;9676;50.916;13.352;2024-03-29T01:27:34;10.20;45.00
19088;DHT22;9676;50.916;13.352;2024-03-29T01:30:20;10.20;45.10
19088;DHT22;9676;50.916;13.352;2024-03-29T01:33:05;10.20;45.00
19088;DHT22;9676;50.916;13.352;2024-03-29T01:35:51;10.20;45.10
19088;DHT22;9676;50.916;13.352;2024-03-29T01:38:37;10.20;45.00
19088;DHT22;9676;50.916;13.352;2024-03-29T01:41:25;10.20;45.00
19088;DHT22;9676;50.916;13.352;2024-03-29T01:44:11;10.20;45.10
19088;DHT22;9676;50.916;13.352;2024-03-29T01:46:57;10.20;45.20
19088;DHT22;9676;50.916;13.352;2024-03-29T01:49:44;10.20;45.20
19088;DHT22;9676;50.916;13.352;2024-03-29T01:52:32;10.20;45.20
19088;DHT22;9676;50.916;13.352;2024-03-29T01:55:18;10.20;45.20
19088;DHT22;9676;50.916;13.352;2024-03-29T01:58:07;10.20;45.10
19088;DHT22;9676;50.916;13.352;2024-03-29T02:00:57;10.20;45.10
19088;DHT22;9676;50.916;13.352;2024-03-29T02:03:44;10.20;45.10
19088;DHT22;9676;50.916;13.352;2024-03-29T02:06:32;10.20;45.20
19088;DHT22;9676;50.916;13.352;2024-03-29T02:09:19;10.20;45.20
19088;DHT22;9676;50.916;13.352;2024-03-29T02:12:06;10.20;45.20
19088;DHT22;9676;50.916;13.352;2024-03-29T02:14:55;10.20;45.20
19088;DHT22;9676;50.916;13.352;2024-03-29T02:17:43;10.20;45.30
19088;DHT22;9676;50.916;13.352;2024-03-29T02:20:32;10.10;45.30
19088;DHT22;9676;50.916;13.352;2024-03-29T02:23:21;10.10;45.30
19088;DHT22;9676;50.916;13.352;2024-03-29T02:26:13;10.10;45.40
19088;DHT22;9676;50.916;13.352;2024-03-29T02:28:59;10.10;45.50
19088;DHT22;9676;50.916;13.352;2024-03-29T02:31:46;10.00;46.10
19088;DHT22;9676;50.916;13.352;2024-03-29T02:34:33;10.00;45.40
19088;DHT22;9676;50.916;13.352;2024-03-29T02:37:20;9.90;46.30
19088;DHT22;9676;50.916;13.352;2024-03-29T02:40:07;9.90;46.50
19088;DHT22;9676;50.916;13.352;2024-03-29T02:42:56;9.80;46.40
19088;DHT22;9676;50.916;13.352;2024-03-29T02:45:43;9.80;46.40
19088;DHT22;9676;50.916;13.352;2024-03-29T02:48:30;9.80;46.50
19088;DHT22;9676;50.916;13.352;2024-03-29T02:51:17;9.70;46.50
19088;DHT22;9676;50.916;13.352;2024-03-29T02:54:03;9.70;46.60
19088;DHT22;9676;50.916;13.352;2024-03-29T02:56:49;9.70;46.70
19088;DHT22;9676;50.916;13.352;2024-03-29T02:59:36;9.70;46.80
19088;DHT22;9676;50.916;13.352;2024-03-29T03:02:23;9.60;46.70
19088;DHT22;9676;50.916;13.352;2024-03-29T03:05:09;9.60;46.80
19088;DHT22;9676;50.916;13.352;2024-03-29T03:07:55;9.60;46.80
19088;DHT22;9676;50.916;13.352;2024-03-29T03:10:59;9.60;46.90
19088;DHT22;9676;50.916;13.352;2024-03-29T03:13:46;9.60;47.10
19088;DHT22;9676;50.916;13.352;2024-03-29T03:16:34;9.60;47.10
19088;DHT22;9676;50.916;13.352;2024-03-29T03:19:21;9.60;47.10
19088;DHT22;9676;50.916;13.352;2024-03-29T03:22:08;9.60;47.10
19088;DHT22;9676;50.916;13.352;2024-03-29T03:24:55;9.60;47.80
19088;DHT22;9676;50.916;13.352;2024-03-29T03:27:40;9.60;47.00
19088;DHT22;9676;50.916;13.352;2024-03-29T03:30:27;9.60;47.30
19088;DHT22;9676;50.916;13.352;2024-03-29T03:33:14;9.60;48.00
19088;DHT22;9676;50.916;13.352;2024-03-29T03:36:01;9.60;47.70
19088;DHT22;9676;50.916;13.352;2024-03-29T03:38:47;9.60;47.60
19088;DHT22;9676;50.916;13.352;2024-03-29T03:41:33;9.60;47.70
19088;DHT22;9676;50.916;13.352;2024-03-29T03:44:19;9.60;47.50
19088;DHT22;9676;50.916;13.352;2024-03-29T03:47:07;9.60;47.50
19088;DHT22;9676;50.916;13.352;2024-03-29T03:49:54;9.60;47.40
19088;DHT22;9676;50.916;13.352;2024-03-29T03:52:40;9.60;47.40
19088;DHT22;9676;50.916;13.352;2024-03-29T03:55:26;9.60;47.40
19088;DHT22;9676;50.916;13.352;2024-03-29T03:58:13;9.50;47.80
19088;DHT22;9676;50.916;13.352;2024-03-29T04:01:03;9.50;47.50
19088;DHT22;9676;50.916;13.352;2024-03-29T04:03:50;9.50;47.40
19088;DHT22;9676;50.916;13.352;2024-03-29T04:06:37;9.60;47.40
19088;DHT22;9676;50.916;13.352;2024-03-29T04:09:24;9.60;47.60
19088;DHT22;9676;50.916;13.352;2024-03-29T04:12:09;9.60;47.60
19088;DHT22;9676;50.916;13.352;2024-03-29T04:14:56;9.60;47.60
19088;DHT22;9676;50.916;13.352;2024-03-29T04:17:42;9.60;47.50
19088;DHT22;9676;50.916;13.352;2024-03-29T04:20:29;9.60;47.50
19088;DHT22;9676;50.916;13.352;2024-03-29T04:23:16;9.60;47.50
19088;DHT22;9676;50.916;13.352;2024-03-29T04:26:03;9.60;47.70
19088;DHT22;9676;50.916;13.352;2024-03-29T04:28:49;9.60;47.80
19088;DHT22;9676;50.916;13.352;2024-03-29T04:31:36;9.60;47.70
19088;DHT22;9676;50.916;13.352;2024-03-29T04:34:21;9.60;47.80
19088;DHT22;9676;50.916;13.352;2024-03-29T04:37:08;9.60;47.80
19088;DHT22;9676;50.916;13.352;2024-03-29T04:39:56;9.60;47.70
19088;DHT22;9676;50.916;13.352;2024-03-29T04:42:43;9.60;47.70
19088;DHT22;9676;50.916;13.352;2024-03-29T04:45:29;9.70;47.80
19088;DHT22;9676;50.916;13.352;2024-03-29T04:48:17;9.70;47.70
19088;DHT22;9676;50.916;13.352;2024-03-29T04:51:04;9.80;47.80
19088;DHT22;9676;50.916;13.352;2024-03-29T04:53:51;9.90;47.90
19088;DHT22;9676;50.916;13.352;2024-03-29T04:56:39;9.90;48.00
19088;DHT22;9676;50.916;13.352;2024-03-29T04:59:25;10.00;47.20
19088;DHT22;9676;50.916;13.352;2024-03-29T05:02:12;10.10;47.40
19088;DHT22;9676;50.916;13.352;2024-03-29T05:04:59;10.20;47.60
19088;DHT22;9676;50.916;13.352;2024-03-29T05:07:46;10.30;47.80
19088;DHT22;9676;50.916;13.352;2024-03-29T05:10:33;10.30;47.60
19088;DHT22;9676;50.916;13.352;2024-03-29T05:13:21;10.40;47.80
19088;DHT22;9676;50.916;13.352;2024-03-29T05:16:07;10.50;47.70
19088;DHT22;9676;50.916;13.352;2024-03-29T05:18:54;10.60;47.80
19088;DHT22;9676;50.916;13.352;2024-03-29T05:21:41;10.60;47.70
19088;DHT22;9676;50.916;13.352;2024-03-29T05:24:28;10.70;47.70
19088;DHT22;9676;50.916;13.352;2024-03-29T05:27:14;10.70;47.60
19088;DHT22;9676;50.916;13.352;2024-03-29T05:30:03;10.80;47.50
19088;DHT22;9676;50.916;13.352;2024-03-29T05:32:51;10.80;47.50
19088;DHT22;9676;50.916;13.352;2024-03-29T05:35:37;10.90;47.50
19088;DHT22;9676;50.916;13.352;2024-03-29T05:38:24;10.90;47.40
19088;DHT22;9676;50.916;13.352;2024-03-29T05:41:11;11.00;47.40
19088;DHT22;9676;50.916;13.352;2024-03-29T05:43:57;11.00;47.40
19088;DHT22;9676;50.916;13.352;2024-03-29T05:46:45;11.10;47.40
19088;DHT22;9676;50.916;13.352;2024-03-29T05:49:32;11.10;47.50
19088;DHT22;9676;50.916;13.352;2024-03-29T05:52:18;11.20;47.50
19088;DHT22;9676;50.916;13.352;2024-03-29T05:55:06;11.20;47.50
19088;DHT22;9676;50.916;13.352;2024-03-29T05:57:54;11.30;47.50
19088;DHT22;9676;50.916;13.352;2024-03-29T06:00:41;11.30;47.50
19088;DHT22;9676;50.916;13.352;2024-03-29T06:03:29;11.40;47.50
19088;DHT22;9676;50.916;13.352;2024-03-29T06:06:16;11.40;47.40
19088;DHT22;9676;50.916;13.352;2024-03-29T06:09:07;11.50;47.40
19088;DHT22;9676;50.916;13.352;2024-03-29T06:11:54;11.50;47.40
19088;DHT22;9676;50.916;13.352;2024-03-29T06:14:41;11.60;47.40
19088;DHT22;9676;50.916;13.352;2024-03-29T06:17:45;11.60;47.40
19088;DHT22;9676;50.916;13.352;2024-03-29T06:20:33;11.70;47.50
19088;DHT22;9676;50.916;13.352;2024-03-29T06:23:20;11.70;47.30
19088;DHT22;9676;50.916;13.352;2024-03-29T06:26:07;11.80;47.40
19088;DHT22;9676;50.916;13.352;2024-03-29T06:28:53;11.80;47.30
19088;DHT22;9676;50.916;13.352;2024-03-29T06:31:40;11.80;47.30
19088;DHT22;9676;50.916;13.352;2024-03-29T06:34:30;11.90;47.30
19088;DHT22;9676;50.916;13.352;2024-03-29T06:37:18;11.90;47.30
19088;DHT22;9676;50.916;13.352;2024-03-29T06:40:07;11.90;47.40
19088;DHT22;9676;50.916;13.352;2024-03-29T06:42:55;11.90;47.30
19088;DHT22;9676;50.916;13.352;2024-03-29T06:45:43;12.00;47.40
19088;DHT22;9676;50.916;13.352;2024-03-29T06:48:30;12.00;47.40
19088;DHT22;9676;50.916;13.352;2024-03-29T06:51:16;12.00;47.40
19088;DHT22;9676;50.916;13.352;2024-03-29T06:54:05;12.00;47.50
19088;DHT22;9676;50.916;13.352;2024-03-29T06:56:51;12.10;47.50
19088;DHT22;9676;50.916;13.352;2024-03-29T06:59:38;12.10;47.50
19088;DHT22;9676;50.916;13.352;2024-03-29T07:02:25;12.20;47.50
19088;DHT22;9676;50.916;13.352;2024-03-29T07:05:11;12.30;47.50
19088;DHT22;9676;50.916;13.352;2024-03-29T07:07:58;12.30;47.40
19088;DHT22;9676;50.916;13.352;2024-03-29T07:10:47;12.40;47.40
19088;DHT22;9676;50.916;13.352;2024-03-29T07:13:34;12.40;47.20
19088;DHT22;9676;50.916;13.352;2024-03-29T07:16:20;12.50;47.20
19088;DHT22;9676;50.916;13.352;2024-03-29T07:19:07;12.50;47.10
19088;DHT22;9676;50.916;13.352;2024-03-29T07:21:54;12.50;47.20
19088;DHT22;9676;50.916;13.352;2024-03-29T07:24:41;12.50;47.10
19088;DHT22;9676;50.916;13.352;2024-03-29T07:27:31;12.60;47.10
19088;DHT22;9676;50.916;13.352;2024-03-29T07:30:20;12.60;47.00
19088;DHT22;9676;50.916;13.352;2024-03-29T07:33:07;12.60;46.90
19088;DHT22;9676;50.916;13.352;2024-03-29T07:35:54;12.60;47.00
19088;DHT22;9676;50.916;13.352;2024-03-29T07:38:42;12.60;47.00
19088;DHT22;9676;50.916;13.352;2024-03-29T07:41:29;12.60;47.00
19088;DHT22;9676;50.916;13.352;2024-03-29T07:44:17;12.60;47.00
19088;DHT22;9676;50.916;13.352;2024-03-29T07:47:04;12.60;47.20
19088;DHT22;9676;50.916;13.352;2024-03-29T07:49:50;12.60;47.20
19088;DHT22;9676;50.916;13.352;2024-03-29T07:52:37;12.70;47.30
19088;DHT22;9676;50.916;13.352;2024-03-29T07:55:24;12.70;47.40
19088;DHT22;9676;50.916;13.352;2024-03-29T07:58:11;12.80;47.50
19088;DHT22;9676;50.916;13.352;2024-03-29T08:00:59;12.80;47.30
19088;DHT22;9676;50.916;13.352;2024-03-29T08:03:46;12.90;47.30
19088;DHT22;9676;50.916;13.352;2024-03-29T08:06:32;12.90;47.10
19088;DHT22;9676;50.916;13.352;2024-03-29T08:09:19;13.00;47.20
19088;DHT22;9676;50.916;13.352;2024-03-29T08:12:06;13.00;47.20
19088;DHT22;9676;50.916;13.352;2024-03-29T08:14:54;13.10;47.10
19088;DHT22;9676;50.916;13.352;2024-03-29T08:17:42;13.20;47.10
19088;DHT22;9676;50.916;13.352;2024-03-29T08:20:29;13.30;47.00
19088;DHT22;9676;50.916;13.352;2024-03-29T08:23:16;13.30;46.90
19088;DHT22;9676;50.916;13.352;2024-03-29T08:26:03;13.40;46.80
19088;DHT22;9676;50.916;13.352;2024-03-29T08:28:50;13.50;46.80
19088;DHT22;9676;50.916;13.352;2024-03-29T08:31:37;13.50;46.80
19088;DHT22;9676;50.916;13.352;2024-03-29T08:34:25;13.60;46.80
19088;DHT22;9676;50.916;13.352;2024-03-29T08:37:13;13.70;46.20
19088;DHT22;9676;50.916;13.352;2024-03-29T08:40:00;13.80;46.30
19088;DHT22;9676;50.916;13.352;2024-03-29T08:42:46;13.90;46.20
19088;DHT22;9676;50.916;13.352;2024-03-29T08:45:33;14.00;46.30
19088;DHT22;9676;50.916;13.352;2024-03-29T08:48:22;14.20;46.50
19088;DHT22;9676;50.916;13.352;2024-03-29T08:51:10;14.30;46.50
19088;DHT22;9676;50.916;13.352;2024-03-29T08:53:57;14.40;46.30
19088;DHT22;9676;50.916;13.352;2024-03-29T08:56:44;14.50;45.50
19088;DHT22;9676;50.916;13.352;2024-03-29T08:59:31;14.60;44.50
19088;DHT22;9676;50.916;13.352;2024-03-29T09:02:18;14.60;45.00
19088;DHT22;9676;50.916;13.352;2024-03-29T09:05:05;14.70;44.50
19088;DHT22;9676;50.916;13.352;2024-03-29T09:07:54;14.70;44.40
19088;DHT22;9676;50.916;13.352;2024-03-29T09:10:41;14.70;44.80
19088;DHT22;9676;50.916;13.352;2024-03-29T09:13:27;14.70;44.60
19088;DHT22;9676;50.916;13.352;2024-03-29T09:16:15;14.70;44.50
19088;DHT22;9676;50.916;13.352;2024-03-29T09:19:02;14.70;44.40
19088;DHT22;9676;50.916;13.352;2024-03-29T09:21:49;14.70;42.50
19088;DHT22;9676;50.916;13.352;2024-03-29T09:24:38;14.80;42.90
19088;DHT22;9676;50.916;13.352;2024-03-29T09:27:26;14.70;42.90
19088;DHT22;9676;50.916;13.352;2024-03-29T09:30:13;14.80;42.50
19088;DHT22;9676;50.916;13.352;2024-03-29T09:33:00;14.70;42.40
19088;DHT22;9676;50.916;13.352;2024-03-29T09:35:51;14.70;42.50
19088;DHT22;9676;50.916;13.352;2024-03-29T09:38:39;14.80;43.00
19088;DHT22;9676;50.916;13.352;2024-03-29T09:41:27;14.80;42.70
19088;DHT22;9676;50.916;13.352;2024-03-29T09:44:15;14.90;43.80
19088;DHT22;9676;50.916;13.352;2024-03-29T09:47:03;14.90;42.80
19088;DHT22;9676;50.916;13.352;2024-03-29T09:49:50;15.00;43.40
19088;DHT22;9676;50.916;13.352;2024-03-29T09:52:38;15.10;43.40
19088;DHT22;9676;50.916;13.352;2024-03-29T09:55:26;15.20;44.00
19088;DHT22;9676;50.916;13.352;2024-03-29T09:58:15;15.30;44.00
19088;DHT22;9676;50.916;13.352;2024-03-29T10:01:03;15.40;44.30
19088;DHT22;9676;50.916;13.352;2024-03-29T10:03:53;15.50;43.90
19088;DHT22;9676;50.916;13.352;2024-03-29T10:06:40;15.70;44.10
19088;DHT22;9676;50.916;13.352;2024-03-29T10:09:28;15.80;44.10
19088;DHT22;9676;50.916;13.352;2024-03-29T10:12:17;15.90;44.10
19088;DHT22;9676;50.916;13.352;2024-03-29T10:15:07;16.00;44.00
19088;DHT22;9676;50.916;13.352;2024-03-29T10:17:59;16.10;43.80
19088;DHT22;9676;50.916;13.352;2024-03-29T10:20:46;16.20;43.40
19088;DHT22;9676;50.916;13.352;2024-03-29T10:23:34;16.40;42.70
19088;DHT22;9676;50.916;13.352;2024-03-29T10:26:21;16.50;43.00
19088;DHT22;9676;50.916;13.352;2024-03-29T10:29:08;16.50;42.50
19088;DHT22;9676;50.916;13.352;2024-03-29T10:31:56;16.60;42.70
19088;DHT22;9676;50.916;13.352;2024-03-29T10:34:43;16.80;42.90
19088;DHT22;9676;50.916;13.352;2024-03-29T10:37:30;16.90;43.20
19088;DHT22;9676;50.916;13.352;2024-03-29T10:40:20;17.20;43.70
19088;DHT22;9676;50.916;13.352;2024-03-29T10:43:09;17.40;43.50
19088;DHT22;9676;50.916;13.352;2024-03-29T10:46:00;17.70;43.30
19088;DHT22;9676;50.916;13.352;2024-03-29T10:48:49;17.90;42.60
19088;DHT22;9676;50.916;13.352;2024-03-29T10:51:38;18.10;42.20
19088;DHT22;9676;50.916;13.352;2024-03-29T10:54:25;18.20;42.00
19088;DHT22;9676;50.916;13.352;2024-03-29T10:57:19;18.30;41.40
19088;DHT22;9676;50.916;13.352;2024-03-29T11:00:08;18.30;41.00
19088;DHT22;9676;50.916;13.352;2024-03-29T11:03:08;18.30;40.20
19088;DHT22;9676;50.916;13.352;2024-03-29T11:06:05;18.30;40.00
19088;DHT22;9676;50.916;13.352;2024-03-29T11:08:52;18.30;38.90
19088;DHT22;9676;50.916;13.352;2024-03-29T11:11:43;18.20;39.80
19088;DHT22;9676;50.916;13.352;2024-03-29T11:14:37;18.10;39.70
19088;DHT22;9676;50.916;13.352;2024-03-29T11:17:26;18.10;39.20
19088;DHT22;9676;50.916;13.352;2024-03-29T11:20:15;18.00;39.00
19088;DHT22;9676;50.916;13.352;2024-03-29T11:23:11;17.90;40.00
19088;DHT22;9676;50.916;13.352;2024-03-29T11:25:59;17.90;39.60
19088;DHT22;9676;50.916;13.352;2024-03-29T11:28:48;17.90;39.90
19088;DHT22;9676;50.916;13.352;2024-03-29T11:31:38;17.90;40.00
19088;DHT22;9676;50.916;13.352;2024-03-29T11:34:24;17.90;39.80
19088;DHT22;9676;50.916;13.352;2024-03-29T11:37:12;17.90;40.30
19088;DHT22;9676;50.916;13.352;2024-03-29T11:40:00;17.90;39.90
19088;DHT22;9676;50.916;13.352;2024-03-29T11:42:47;18.00;40.60
19088;DHT22;9676;50.916;13.352;2024-03-29T11:45:34;18.10;40.90
19088;DHT22;9676;50.916;13.352;2024-03-29T11:48:23;18.10;40.70
19088;DHT22;9676;50.916;13.352;2024-03-29T11:51:13;18.20;40.90
19088;DHT22;9676;50.916;13.352;2024-03-29T11:54:01;18.20;41.10
19088;DHT22;9676;50.916;13.352;2024-03-29T11:56:49;18.30;40.70
19088;DHT22;9676;50.916;13.352;2024-03-29T11:59:36;18.30;41.00
19088;DHT22;9676;50.916;13.352;2024-03-29T12:02:23;18.30;40.90
19088;DHT22;9676;50.916;13.352;2024-03-29T12:05:11;18.30;41.10
19088;DHT22;9676;50.916;13.352;2024-03-29T12:07:58;18.30;41.40
19088;DHT22;9676;50.916;13.352;2024-03-29T12:10:44;18.20;41.60
19088;DHT22;9676;50.916;13.352;2024-03-29T12:13:33;18.20;41.80
19088;DHT22;9676;50.916;13.352;2024-03-29T12:16:19;18.10;41.80
19088;DHT22;9676;50.916;13.352;2024-03-29T12:19:06;17.90;41.70
19088;DHT22;9676;50.916;13.352;2024-03-29T12:21:54;17.80;41.90
19088;DHT22;9676;50.916;13.352;2024-03-29T12:24:41;17.70;42.10
19088;DHT22;9676;50.916;13.352;2024-03-29T12:27:28;17.60;42.20
19088;DHT22;9676;50.916;13.352;2024-03-29T12:30:18;17.60;43.20
19088;DHT22;9676;50.916;13.352;2024-03-29T12:33:06;17.60;42.80
19088;DHT22;9676;50.916;13.352;2024-03-29T12:35:54;17.70;43.00
19088;DHT22;9676;50.916;13.352;2024-03-29T12:38:42;17.80;43.20
19088;DHT22;9676;50.916;13.352;2024-03-29T12:41:30;18.00;43.80
19088;DHT22;9676;50.916;13.352;2024-03-29T12:44:17;18.20;44.30
19088;DHT22;9676;50.916;13.352;2024-03-29T12:47:05;18.50;44.60
19088;DHT22;9676;50.916;13.352;2024-03-29T12:49:52;18.70;44.70
19088;DHT22;9676;50.916;13.352;2024-03-29T12:52:41;19.00;44.60
19088;DHT22;9676;50.916;13.352;2024-03-29T12:55:29;19.30;44.30
19088;DHT22;9676;50.916;13.352;2024-03-29T12:58:17;19.40;43.70
19088;DHT22;9676;50.916;13.352;2024-03-29T13:01:07;19.60;43.80
19088;DHT22;9676;50.916;13.352;2024-03-29T13:03:56;19.70;43.60
19088;DHT22;9676;50.916;13.352;2024-03-29T13:06:43;19.80;43.50
19088;DHT22;9676;50.916;13.352;2024-03-29T13:09:30;19.90;43.20
19088;DHT22;9676;50.916;13.352;2024-03-29T13:12:16;20.00;43.30
19088;DHT22;9676;50.916;13.352;2024-03-29T13:15:14;20.00;43.40
19088;DHT22;9676;50.916;13.352;2024-03-29T13:18:02;20.10;43.30
19088;DHT22;9676;50.916;13.352;2024-03-29T13:20:51;20.10;43.30
19088;DHT22;9676;50.916;13.352;2024-03-29T13:23:37;20.20;43.30
19088;DHT22;9676;50.916;13.352;2024-03-29T13:26:24;20.30;43.60
19088;DHT22;9676;50.916;13.352;2024-03-29T13:29:11;20.30;43.60
19088;DHT22;9676;50.916;13.352;2024-03-29T13:32:00;20.40;43.20
19088;DHT22;9676;50.916;13.352;2024-03-29T13:34:47;20.50;43.00
19088;DHT22;9676;50.916;13.352;2024-03-29T13:37:35;20.50;42.10
19088;DHT22;9676;50.916;13.352;2024-03-29T13:40:23;20.50;42.50
19088;DHT22;9676;50.916;13.352;2024-03-29T13:43:10;20.50;42.80
19088;DHT22;9676;50.916;13.352;2024-03-29T13:45:57;20.50;43.00
19088;DHT22;9676;50.916;13.352;2024-03-29T13:48:45;20.50;42.70
19088;DHT22;9676;50.916;13.352;2024-03-29T13:51:33;20.40;42.80
19088;DHT22;9676;50.916;13.352;2024-03-29T13:54:22;20.50;43.10
19088;DHT22;9676;50.916;13.352;2024-03-29T13:57:10;20.50;43.30
19088;DHT22;9676;50.916;13.352;2024-03-29T13:59:57;20.60;43.60
19088;DHT22;9676;50.916;13.352;2024-03-29T14:02:44;20.60;43.80
19088;DHT22;9676;50.916;13.352;2024-03-29T14:05:31;20.70;44.00
19088;DHT22;9676;50.916;13.352;2024-03-29T14:08:18;20.80;44.00
19088;DHT22;9676;50.916;13.352;2024-03-29T14:11:06;20.90;44.00
19088;DHT22;9676;50.916;13.352;2024-03-29T14:13:52;21.00;43.90
19088;DHT22;9676;50.916;13.352;2024-03-29T14:16:41;21.10;43.90
19088;DHT22;9676;50.916;13.352;2024-03-29T14:19:27;21.10;43.80
19088;DHT22;9676;50.916;13.352;2024-03-29T14:22:14;21.20;43.80
19088;DHT22;9676;50.916;13.352;2024-03-29T14:25:04;21.20;43.80
19088;DHT22;9676;50.916;13.352;2024-03-29T14:27:56;21.20;43.70
19088;DHT22;9676;50.916;13.352;2024-03-29T14:30:45;21.20;43.60
19088;DHT22;9676;50.916;13.352;2024-03-29T14:33:31;21.10;43.50
19088;DHT22;9676;50.916;13.352;2024-03-29T14:36:18;21.10;43.40
19088;DHT22;9676;50.916;13.352;2024-03-29T14:39:05;21.00;43.50
19088;DHT22;9676;50.916;13.352;2024-03-29T14:41:52;20.90;43.40
19088;DHT22;9676;50.916;13.352;2024-03-29T14:44:40;20.80;43.50
19088;DHT22;9676;50.916;13.352;2024-03-29T14:47:27;20.80;43.60
19088;DHT22;9676;50.916;13.352;2024-03-29T14:50:13;20.70;43.70
19088;DHT22;9676;50.916;13.352;2024-03-29T14:53:00;20.70;43.80
19088;DHT22;9676;50.916;13.352;2024-03-29T14:55:47;20.60;43.80
19088;DHT22;9676;50.916;13.352;2024-03-29T14:58:34;20.60;43.90
19088;DHT22;9676;50.916;13.352;2024-03-29T15:01:23;20.60;44.00
19088;DHT22;9676;50.916;13.352;2024-03-29T15:04:10;20.60;44.10
19088;DHT22;9676;50.916;13.352;2024-03-29T15:06:57;20.60;44.00
19088;DHT22;9676;50.916;13.352;2024-03-29T15:09:44;20.60;44.00
19088;DHT22;9676;50.916;13.352;2024-03-29T15:12:31;20.50;44.10
19088;DHT22;9676;50.916;13.352;2024-03-29T15:15:18;20.50;44.90
19088;DHT22;9676;50.916;13.352;2024-03-29T15:18:06;20.50;44.20
19088;DHT22;9676;50.916;13.352;2024-03-29T15:20:55;20.50;44.20
19088;DHT22;9676;50.916;13.352;2024-03-29T15:23:42;20.50;44.20
19088;DHT22;9676;50.916;13.352;2024-03-29T15:26:29;20.50;44.20
19088;DHT22;9676;50.916;13.352;2024-03-29T15:29:16;20.50;44.10
19088;DHT22;9676;50.916;13.352;2024-03-29T15:32:03;20.50;44.10
19088;DHT22;9676;50.916;13.352;2024-03-29T15:34:51;20.50;44.10
19088;DHT22;9676;50.916;13.352;2024-03-29T15:37:38;20.50;44.10
19088;DHT22;9676;50.916;13.352;2024-03-29T15:40:25;20.50;44.10
19088;DHT22;9676;50.916;13.352;2024-03-29T15:43:11;20.50;44.10
19088;DHT22;9676;50.916;13.352;2024-03-29T15:45:58;20.50;44.10
19088;DHT22;9676;50.916;13.352;2024-03-29T15:48:45;20.50;44.20
19088;DHT22;9676;50.916;13.352;2024-03-29T15:51:33;20.50;44.20
19088;DHT22;9676;50.916;13.352;2024-03-29T15:54:19;20.50;44.20
19088;DHT22;9676;50.916;13.352;2024-03-29T15:57:08;20.40;44.10
19088;DHT22;9676;50.916;13.352;2024-03-29T15:59:55;20.40;44.10
19088;DHT22;9676;50.916;13.352;2024-03-29T16:02:46;20.50;44.20
19088;DHT22;9676;50.916;13.352;2024-03-29T16:05:33;20.50;44.20
19088;DHT22;9676;50.916;13.352;2024-03-29T16:08:22;20.50;44.20
19088;DHT22;9676;50.916;13.352;2024-03-29T16:11:09;20.50;44.20
19088;DHT22;9676;50.916;13.352;2024-03-29T16:13:55;20.50;44.20
19088;DHT22;9676;50.916;13.352;2024-03-29T16:16:42;20.40;44.20
19088;DHT22;9676;50.916;13.352;2024-03-29T16:19:29;20.40;44.20
19088;DHT22;9676;50.916;13.352;2024-03-29T16:22:15;20.40;44.30
19088;DHT22;9676;50.916;13.352;2024-03-29T16:25:03;20.40;44.30
19088;DHT22;9676;50.916;13.352;2024-03-29T16:27:50;20.40;44.30
19088;DHT22;9676;50.916;13.352;2024-03-29T16:30:37;20.40;44.30
19088;DHT22;9676;50.916;13.352;2024-03-29T16:33:23;20.40;44.30
19088;DHT22;9676;50.916;13.352;2024-03-29T16:36:09;20.40;44.30
19088;DHT22;9676;50.916;13.352;2024-03-29T16:38:55;20.40;44.30
19088;DHT22;9676;50.916;13.352;2024-03-29T16:41:43;20.30;44.10
19088;DHT22;9676;50.916;13.352;2024-03-29T16:44:31;20.30;44.10
19088;DHT22;9676;50.916;13.352;2024-03-29T16:47:18;20.20;44.00
19088;DHT22;9676;50.916;13.352;2024-03-29T16:50:05;20.20;44.00
19088;DHT22;9676;50.916;13.352;2024-03-29T16:52:54;20.10;44.00
19088;DHT22;9676;50.916;13.352;2024-03-29T16:55:40;20.10;44.10
19088;DHT22;9676;50.916;13.352;2024-03-29T16:58:28;20.00;44.00
19088;DHT22;9676;50.916;13.352;2024-03-29T17:01:14;20.00;44.10
19088;DHT22;9676;50.916;13.352;2024-03-29T17:04:00;19.90;44.00
19088;DHT22;9676;50.916;13.352;2024-03-29T17:06:47;19.90;44.10
19088;DHT22;9676;50.916;13.352;2024-03-29T17:09:38;19.80;44.10
19088;DHT22;9676;50.916;13.352;2024-03-29T17:12:25;19.80;44.20
19088;DHT22;9676;50.916;13.352;2024-03-29T17:15:13;19.70;44.00
19088;DHT22;9676;50.916;13.352;2024-03-29T17:17:59;19.70;44.10
19088;DHT22;9676;50.916;13.352;2024-03-29T17:20:48;19.60;44.10
19088;DHT22;9676;50.916;13.352;2024-03-29T17:23:33;19.60;44.10
19088;DHT22;9676;50.916;13.352;2024-03-29T17:26:20;19.50;44.00
19088;DHT22;9676;50.916;13.352;2024-03-29T17:29:06;19.50;44.10
19088;DHT22;9676;50.916;13.352;2024-03-29T17:31:54;19.40;44.10
19088;DHT22;9676;50.916;13.352;2024-03-29T17:34:40;19.40;44.20
19088;DHT22;9676;50.916;13.352;2024-03-29T17:37:27;19.30;44.10
19088;DHT22;9676;50.916;13.352;2024-03-29T17:40:12;19.20;44.10